Mogadishu Aden Adde International Airport

Current Flights

Info
Name: Mogadishu Aden Adde International Airport
Identifier:  MGQ/HCMM
Local Time:  27. May 04:09
City
Mogadishu
  Somalia

Flights per Day
14 flights
Distance: 940km (584mi)
Punctuality
97% (0 flights per day delayed)
Delay Average: 110 minutes
Current Weather
 30 C (Humidity: 66%)
  13kt (24km/h / 14mph) from 200°
  Broken clouds at 2,200 feet (670 meter)
  9km (6 mi.)
 METAR HCMM 261300Z 20013KT 9999 BKN022 30/23 Q1008

Current Delays

Departures
N/A
Arrivals
N/A

Destinations

Top Destinations
Airport Flights
per week
Seats
per week
  Djibouti (JIB) 7 1,883 1 269
  Addis Ababa (ADD) 7 1,813 1 259
  Nairobi (NBO) <1 - 0 0

Airlines & Planes

Top Airlines
Airline Flights
per Day
Seats
per Day
  Turkish Airlines 1 269
  Ethiopian Airlines 1 259
  ANA Wings <1 -
Top Plane Types
Manufacturer Model Flights Seats
Boeing B737-800 3.2/day 479/day 479.73333333333335
McDonnell-Douglas MD-82 0.3/day - 0
Boeing B737-900 0.3/day 41/day 41.46666666666667
Boeing B737-700 0.1/day 7/day 7.866666666666667